OIIE/IKA METAR and TAF weather

Enter ICAO airport designator
Station Type Date Time Source
OIIE METAR 2022/12/01 00:30 UTC NOAA

OIIE 010030Z 27005KT 9999 FEW100 BKN200 09/00 Q1024


Station Type Date Time Source
OIIE Decoded METAR 2022/12/01 00:30 UTC NOAA

Station name not available
Nov 30, 2022 - 07:30 PM EST / 2022.12.01 0030 UTC
Wind: from the W (270 degrees) at 6 MPH (5 KT):0
Visibility: greater than 7 mile(s):0
Sky conditions: mostly cloudy
Temperature: 48 F (9 C)
Dew Point: 32 F (0 C)
Relative Humidity: 53%
Pressure (altimeter): 30.24 in. Hg (1024 hPa)
ob: OIIE 010030Z 27005KT 9999 FEW100 BKN200 09/00 Q1024
cycle: 0

Station Type Date Time Source
OIIE TAF 2022/11/30 18:00 UTC NOAA

TAF OIIE 301740Z 3018/0124 30006KT 7000 FEW040 SCT100
TEMPO 0103/0112 4000 RA FEW035CB SCT040 BKN100

Example: see airport list